Airfield :
LOGIN :

Register | Disclaimer

   EN    FR    IT 

 










Legend :    VFR   Marginal VFR   IFR   Intensive IFR   Very Intensive IFR
Visi :
Ceiling :
>= 8 km
>= 3000ft
5 to 8 km
1000 to 3000 ft
1500m to 5 km
500 to 1000 ft
800 to 1500m
200 to 500 ft
< 800m
< 200 ft
Symbols :   Thunderstorms  Fog  Heavy snow  Heavy precipitations  Wind > 20 kt
SIGMETs :     Misc.  Thunderstorms  Icing  Turbulence  Mountain Waves  Volcanic Ashes






- Airport Elevation : 74 ft
- IATA code : NDZ


ETMN - Cuxhaven Nordholz Sea AB

CURRENT METAR :
  • 280920Z 14010KT 8000 -RADZ BKN004 SCT007 BKN016 05/04 Q1011 RERA YLO WHT TEMPO YLO

EXPIRED METARs :
  • 280909Z 14009KT 7000 -RADZ BKN005 SCT008 BKN013 05/04 Q1011 RERA YLO WHT TEMPO YLO
  • 280845Z 14009KT 7000 RA SCT005 BKN009 BKN016 05/05 Q1010 GRN WHT TEMPO GRN
  • 280820Z 14008KT 7000 -RA FEW005 SCT009 BKN016 05/04 Q1010 RERA WHT WHT TEMPO GRN
  • 280720Z 14009KT 5000 RADZ BR FEW008 BKN022 05/04 Q1010 WHT BLU TEMPO GRN

TAF AMD TAF ETMN
Valid from the 28 at 09:00 until the 28 at 18:00 UTC


280914Z 2809/2818 15010KT 8000 -RA SCT010 BKN015
TEMPO 2809/2818 15012KT 3000 -DZRA BKN005 BKN010



MET'MAP, your aeronautical weather chart ! - Copyright ORBIFLY December 2007 - Disclaimer

ORBIFLY MET'MAP TEAM :

Programming & Development : Alexandra Zaïnal
Original concept : Baudouin d'Aumeries
Technical & hardware support : Manuel Goepfert
Assistance : Marc-Olivier Méhu




SOURCES & CREDITS :

   NOAA